sensor_id;sensor_type;location;lat;lon;timestamp;temperature;humidity
3866;DHT22;1948;53.250;10.412;2024-02-26T00:00:37;4.10;99.90
3866;DHT22;1948;53.250;10.412;2024-02-26T00:03:04;4.10;99.90
3866;DHT22;1948;53.250;10.412;2024-02-26T00:05:31;4.10;99.90
3866;DHT22;1948;53.250;10.412;2024-02-26T00:08:01;4.10;99.90
3866;DHT22;1948;53.250;10.412;2024-02-26T00:10:31;4.00;99.90
3866;DHT22;1948;53.250;10.412;2024-02-26T00:12:58;4.10;99.90
3866;DHT22;1948;53.250;10.412;2024-02-26T00:15:25;4.00;99.90
3866;DHT22;1948;53.250;10.412;2024-02-26T00:17:57;4.00;99.90
3866;DHT22;1948;53.250;10.412;2024-02-26T00:20:24;3.90;99.90
3866;DHT22;1948;53.250;10.412;2024-02-26T00:22:51;3.90;99.90
3866;DHT22;1948;53.250;10.412;2024-02-26T00:25:18;3.90;99.90
3866;DHT22;1948;53.250;10.412;2024-02-26T00:27:48;3.80;99.90
3866;DHT22;1948;53.250;10.412;2024-02-26T00:30:17;3.90;99.90
3866;DHT22;1948;53.250;10.412;2024-02-26T00:32:49;3.90;99.90
3866;DHT22;1948;53.250;10.412;2024-02-26T00:35:16;3.80;99.90
3866;DHT22;1948;53.250;10.412;2024-02-26T00:37:47;3.80;99.90
3866;DHT22;1948;53.250;10.412;2024-02-26T00:40:18;3.70;99.90
3866;DHT22;1948;53.250;10.412;2024-02-26T00:42:48;3.80;99.90
3866;DHT22;1948;53.250;10.412;2024-02-26T00:45:16;3.70;99.90
3866;DHT22;1948;53.250;10.412;2024-02-26T00:47:43;3.70;99.90
3866;DHT22;1948;53.250;10.412;2024-02-26T00:50:12;3.70;99.90
3866;DHT22;1948;53.250;10.412;2024-02-26T00:52:39;3.70;99.90
3866;DHT22;1948;53.250;10.412;2024-02-26T00:55:07;3.60;99.90
3866;DHT22;1948;53.250;10.412;2024-02-26T00:57:34;3.60;99.90
3866;DHT22;1948;53.250;10.412;2024-02-26T01:00:01;3.60;99.90
3866;DHT22;1948;53.250;10.412;2024-02-26T01:02:28;3.50;99.90
3866;DHT22;1948;53.250;10.412;2024-02-26T01:04:55;3.50;99.90
3866;DHT22;1948;53.250;10.412;2024-02-26T01:07:22;3.50;99.90
3866;DHT22;1948;53.250;10.412;2024-02-26T01:09:54;3.50;99.90
3866;DHT22;1948;53.250;10.412;2024-02-26T01:12:23;3.50;99.90
3866;DHT22;1948;53.250;10.412;2024-02-26T01:14:50;3.40;99.90
3866;DHT22;1948;53.250;10.412;2024-02-26T01:17:20;3.30;99.90
3866;DHT22;1948;53.250;10.412;2024-02-26T01:19:47;3.40;99.90
3866;DHT22;1948;53.250;10.412;2024-02-26T01:22:20;3.40;99.90
3866;DHT22;1948;53.250;10.412;2024-02-26T01:24:48;3.30;99.90
3866;DHT22;1948;53.250;10.412;2024-02-26T01:27:15;3.20;99.90
3866;DHT22;1948;53.250;10.412;2024-02-26T01:29:45;3.20;99.90
3866;DHT22;1948;53.250;10.412;2024-02-26T01:32:17;3.20;99.90
3866;DHT22;1948;53.250;10.412;2024-02-26T01:34:44;3.30;99.90
3866;DHT22;1948;53.250;10.412;2024-02-26T01:37:14;3.30;99.90
3866;DHT22;1948;53.250;10.412;2024-02-26T01:39:41;3.30;99.90
3866;DHT22;1948;53.250;10.412;2024-02-26T01:42:08;3.30;99.90
3866;DHT22;1948;53.250;10.412;2024-02-26T01:44:38;3.30;99.90
3866;DHT22;1948;53.250;10.412;2024-02-26T01:47:08;3.30;99.90
3866;DHT22;1948;53.250;10.412;2024-02-26T01:49:37;3.20;99.90
3866;DHT22;1948;53.250;10.412;2024-02-26T01:52:08;3.20;99.90
3866;DHT22;1948;53.250;10.412;2024-02-26T01:54:38;3.20;99.90
3866;DHT22;1948;53.250;10.412;2024-02-26T01:57:09;3.20;99.90
3866;DHT22;1948;53.250;10.412;2024-02-26T01:59:41;3.30;99.90
3866;DHT22;1948;53.250;10.412;2024-02-26T02:02:10;3.20;99.90
3866;DHT22;1948;53.250;10.412;2024-02-26T02:04:39;3.20;99.90
3866;DHT22;1948;53.250;10.412;2024-02-26T02:07:08;3.20;99.90
3866;DHT22;1948;53.250;10.412;2024-02-26T02:09:36;3.20;99.90
3866;DHT22;1948;53.250;10.412;2024-02-26T02:12:03;3.20;99.90
3866;DHT22;1948;53.250;10.412;2024-02-26T02:14:30;3.10;99.90
3866;DHT22;1948;53.250;10.412;2024-02-26T02:17:01;3.10;99.90
3866;DHT22;1948;53.250;10.412;2024-02-26T02:19:35;3.10;99.90
3866;DHT22;1948;53.250;10.412;2024-02-26T02:22:07;3.00;99.90
3866;DHT22;1948;53.250;10.412;2024-02-26T02:24:34;3.10;99.90
3866;DHT22;1948;53.250;10.412;2024-02-26T02:27:03;3.10;99.90
3866;DHT22;1948;53.250;10.412;2024-02-26T02:29:30;3.10;99.90
3866;DHT22;1948;53.250;10.412;2024-02-26T02:32:01;3.10;99.90
3866;DHT22;1948;53.250;10.412;2024-02-26T02:34:29;3.10;99.90
3866;DHT22;1948;53.250;10.412;2024-02-26T02:36:56;3.00;99.90
3866;DHT22;1948;53.250;10.412;2024-02-26T02:39:23;3.10;99.90
3866;DHT22;1948;53.250;10.412;2024-02-26T02:41:50;3.00;99.90
3866;DHT22;1948;53.250;10.412;2024-02-26T02:44:19;3.00;99.90
3866;DHT22;1948;53.250;10.412;2024-02-26T02:46:48;2.90;99.90
3866;DHT22;1948;53.250;10.412;2024-02-26T02:49:17;2.90;99.90
3866;DHT22;1948;53.250;10.412;2024-02-26T02:51:47;2.90;99.90
3866;DHT22;1948;53.250;10.412;2024-02-26T02:54:19;3.00;99.90
3866;DHT22;1948;53.250;10.412;2024-02-26T02:56:48;2.90;99.90
3866;DHT22;1948;53.250;10.412;2024-02-26T02:59:15;2.90;99.90
3866;DHT22;1948;53.250;10.412;2024-02-26T03:01:42;2.90;99.90
3866;DHT22;1948;53.250;10.412;2024-02-26T03:04:09;2.80;99.90
3866;DHT22;1948;53.250;10.412;2024-02-26T03:06:36;2.80;99.90
3866;DHT22;1948;53.250;10.412;2024-02-26T03:09:03;2.80;99.90
3866;DHT22;1948;53.250;10.412;2024-02-26T03:11:30;2.80;99.90
3866;DHT22;1948;53.250;10.412;2024-02-26T03:13:59;2.80;99.90
3866;DHT22;1948;53.250;10.412;2024-02-26T03:16:29;2.80;99.90
3866;DHT22;1948;53.250;10.412;2024-02-26T03:18:58;2.70;99.90
3866;DHT22;1948;53.250;10.412;2024-02-26T03:21:26;2.70;99.90
3866;DHT22;1948;53.250;10.412;2024-02-26T03:23:58;2.70;99.90
3866;DHT22;1948;53.250;10.412;2024-02-26T03:26:25;2.70;99.90
3866;DHT22;1948;53.250;10.412;2024-02-26T03:28:55;2.60;99.90
3866;DHT22;1948;53.250;10.412;2024-02-26T03:31:24;2.50;99.90
3866;DHT22;1948;53.250;10.412;2024-02-26T03:33:53;2.40;99.90
3866;DHT22;1948;53.250;10.412;2024-02-26T03:36:25;2.40;99.90
3866;DHT22;1948;53.250;10.412;2024-02-26T03:38:55;2.40;99.90
3866;DHT22;1948;53.250;10.412;2024-02-26T03:41:25;2.30;99.90
3866;DHT22;1948;53.250;10.412;2024-02-26T03:43:55;2.20;99.90
3866;DHT22;1948;53.250;10.412;2024-02-26T03:46:23;2.20;99.90
3866;DHT22;1948;53.250;10.412;2024-02-26T03:48:49;2.10;99.90
3866;DHT22;1948;53.250;10.412;2024-02-26T03:51:19;2.10;99.90
3866;DHT22;1948;53.250;10.412;2024-02-26T03:53:49;2.10;99.90
3866;DHT22;1948;53.250;10.412;2024-02-26T03:56:16;2.10;99.90
3866;DHT22;1948;53.250;10.412;2024-02-26T03:58:43;2.10;99.90
3866;DHT22;1948;53.250;10.412;2024-02-26T04:01:12;2.00;99.90
3866;DHT22;1948;53.250;10.412;2024-02-26T04:03:42;2.00;99.90
3866;DHT22;1948;53.250;10.412;2024-02-26T04:06:12;2.00;99.90
3866;DHT22;1948;53.250;10.412;2024-02-26T04:08:41;2.00;99.90
3866;DHT22;1948;53.250;10.412;2024-02-26T04:11:08;2.00;99.90
3866;DHT22;1948;53.250;10.412;2024-02-26T04:13:40;2.00;99.90
3866;DHT22;1948;53.250;10.412;2024-02-26T04:16:09;2.10;99.90
3866;DHT22;1948;53.250;10.412;2024-02-26T04:18:37;2.10;99.90
3866;DHT22;1948;53.250;10.412;2024-02-26T04:21:04;2.10;99.90
3866;DHT22;1948;53.250;10.412;2024-02-26T04:23:34;2.10;99.90
3866;DHT22;1948;53.250;10.412;2024-02-26T04:26:04;2.10;99.90
3866;DHT22;1948;53.250;10.412;2024-02-26T04:28:34;2.10;99.90
3866;DHT22;1948;53.250;10.412;2024-02-26T04:31:01;2.10;99.90
3866;DHT22;1948;53.250;10.412;2024-02-26T04:33:34;2.10;99.90
3866;DHT22;1948;53.250;10.412;2024-02-26T04:36:01;2.20;99.90
3866;DHT22;1948;53.250;10.412;2024-02-26T04:38:31;2.10;99.90
3866;DHT22;1948;53.250;10.412;2024-02-26T04:41:00;2.20;99.90
3866;DHT22;1948;53.250;10.412;2024-02-26T04:43:27;2.20;99.90
3866;DHT22;1948;53.250;10.412;2024-02-26T04:45:54;2.20;99.90
3866;DHT22;1948;53.250;10.412;2024-02-26T04:48:23;2.10;99.90
3866;DHT22;1948;53.250;10.412;2024-02-26T04:50:50;2.10;99.90
3866;DHT22;1948;53.250;10.412;2024-02-26T04:53:22;2.20;99.90
3866;DHT22;1948;53.250;10.412;2024-02-26T04:55:49;2.20;99.90
3866;DHT22;1948;53.250;10.412;2024-02-26T04:58:18;2.20;99.90
3866;DHT22;1948;53.250;10.412;2024-02-26T05:00:45;2.20;99.90
3866;DHT22;1948;53.250;10.412;2024-02-26T05:03:12;2.20;99.90
3866;DHT22;1948;53.250;10.412;2024-02-26T05:05:45;2.30;99.90
3866;DHT22;1948;53.250;10.412;2024-02-26T05:08:12;2.20;99.90
3866;DHT22;1948;53.250;10.412;2024-02-26T05:10:39;2.20;99.90
3866;DHT22;1948;53.250;10.412;2024-02-26T05:13:12;2.20;99.90
3866;DHT22;1948;53.250;10.412;2024-02-26T05:15:41;2.20;99.90
3866;DHT22;1948;53.250;10.412;2024-02-26T05:18:08;2.30;99.90
3866;DHT22;1948;53.250;10.412;2024-02-26T05:20:35;2.30;99.90
3866;DHT22;1948;53.250;10.412;2024-02-26T05:23:07;2.30;99.90
3866;DHT22;1948;53.250;10.412;2024-02-26T05:25:39;2.30;99.90
3866;DHT22;1948;53.250;10.412;2024-02-26T05:28:11;2.40;99.90
3866;DHT22;1948;53.250;10.412;2024-02-26T05:30:38;2.40;99.90
3866;DHT22;1948;53.250;10.412;2024-02-26T05:33:06;2.40;99.90
3866;DHT22;1948;53.250;10.412;2024-02-26T05:35:33;2.40;99.90
3866;DHT22;1948;53.250;10.412;2024-02-26T05:38:00;2.40;99.90
3866;DHT22;1948;53.250;10.412;2024-02-26T05:40:27;2.40;99.90
3866;DHT22;1948;53.250;10.412;2024-02-26T05:42:54;2.40;99.90
3866;DHT22;1948;53.250;10.412;2024-02-26T05:45:21;2.50;99.90
3866;DHT22;1948;53.250;10.412;2024-02-26T05:47:51;2.40;99.90
3866;DHT22;1948;53.250;10.412;2024-02-26T05:50:20;2.30;99.90
3866;DHT22;1948;53.250;10.412;2024-02-26T05:52:47;2.40;99.90
3866;DHT22;1948;53.250;10.412;2024-02-26T05:55:14;2.40;99.90
3866;DHT22;1948;53.250;10.412;2024-02-26T05:57:43;2.40;99.90
3866;DHT22;1948;53.250;10.412;2024-02-26T06:00:11;2.40;99.90
3866;DHT22;1948;53.250;10.412;2024-02-26T06:02:41;2.50;99.90
3866;DHT22;1948;53.250;10.412;2024-02-26T06:05:08;2.50;99.90
3866;DHT22;1948;53.250;10.412;2024-02-26T06:07:36;2.60;99.90
3866;DHT22;1948;53.250;10.412;2024-02-26T06:10:05;2.60;99.90
3866;DHT22;1948;53.250;10.412;2024-02-26T06:12:35;2.60;99.90
3866;DHT22;1948;53.250;10.412;2024-02-26T06:15:03;2.60;99.90
3866;DHT22;1948;53.250;10.412;2024-02-26T06:17:31;2.60;99.90
3866;DHT22;1948;53.250;10.412;2024-02-26T06:20:00;2.60;99.90
3866;DHT22;1948;53.250;10.412;2024-02-26T06:22:31;2.70;99.90
3866;DHT22;1948;53.250;10.412;2024-02-26T06:24:58;2.70;99.90
3866;DHT22;1948;53.250;10.412;2024-02-26T06:27:25;2.70;99.90
3866;DHT22;1948;53.250;10.412;2024-02-26T06:29:52;2.70;99.90
3866;DHT22;1948;53.250;10.412;2024-02-26T06:32:23;2.80;99.90
3866;DHT22;1948;53.250;10.412;2024-02-26T06:34:52;2.80;99.90
3866;DHT22;1948;53.250;10.412;2024-02-26T06:37:19;2.80;99.90
3866;DHT22;1948;53.250;10.412;2024-02-26T06:39:46;2.80;99.90
3866;DHT22;1948;53.250;10.412;2024-02-26T06:42:18;2.90;99.90
3866;DHT22;1948;53.250;10.412;2024-02-26T06:44:44;2.90;99.90
3866;DHT22;1948;53.250;10.412;2024-02-26T06:47:11;2.90;99.90
3866;DHT22;1948;53.250;10.412;2024-02-26T06:49:41;3.10;99.90
3866;DHT22;1948;53.250;10.412;2024-02-26T06:52:11;3.10;99.90
3866;DHT22;1948;53.250;10.412;2024-02-26T06:54:37;3.20;99.90
3866;DHT22;1948;53.250;10.412;2024-02-26T06:57:04;3.20;99.90
3866;DHT22;1948;53.250;10.412;2024-02-26T06:59:31;3.20;99.90
3866;DHT22;1948;53.250;10.412;2024-02-26T07:01:58;3.30;99.90
3866;DHT22;1948;53.250;10.412;2024-02-26T07:04:26;3.50;99.90
3866;DHT22;1948;53.250;10.412;2024-02-26T07:06:53;3.50;99.90
3866;DHT22;1948;53.250;10.412;2024-02-26T07:09:22;3.60;99.90
3866;DHT22;1948;53.250;10.412;2024-02-26T07:11:49;3.70;99.90
3866;DHT22;1948;53.250;10.412;2024-02-26T07:14:16;3.70;99.90
3866;DHT22;1948;53.250;10.412;2024-02-26T07:16:43;3.80;99.90
3866;DHT22;1948;53.250;10.412;2024-02-26T07:19:12;3.70;99.90
3866;DHT22;1948;53.250;10.412;2024-02-26T07:21:42;3.80;99.90
3866;DHT22;1948;53.250;10.412;2024-02-26T07:24:12;3.90;99.90
3866;DHT22;1948;53.250;10.412;2024-02-26T07:26:39;3.90;99.90
3866;DHT22;1948;53.250;10.412;2024-02-26T07:29:08;4.00;99.90
3866;DHT22;1948;53.250;10.412;2024-02-26T07:31:38;4.10;99.90
3866;DHT22;1948;53.250;10.412;2024-02-26T07:34:05;4.20;99.90
3866;DHT22;1948;53.250;10.412;2024-02-26T07:36:34;4.10;99.90
3866;DHT22;1948;53.250;10.412;2024-02-26T07:39:06;4.10;99.90
3866;DHT22;1948;53.250;10.412;2024-02-26T07:41:33;4.20;99.90
3866;DHT22;1948;53.250;10.412;2024-02-26T07:44:00;4.30;99.90
3866;DHT22;1948;53.250;10.412;2024-02-26T07:46:27;4.40;99.90
3866;DHT22;1948;53.250;10.412;2024-02-26T07:48:54;4.50;99.90
3866;DHT22;1948;53.250;10.412;2024-02-26T07:51:21;4.50;99.90
3866;DHT22;1948;53.250;10.412;2024-02-26T07:53:52;4.50;99.90
3866;DHT22;1948;53.250;10.412;2024-02-26T07:56:21;4.50;99.90
3866;DHT22;1948;53.250;10.412;2024-02-26T07:58:48;4.60;99.90
3866;DHT22;1948;53.250;10.412;2024-02-26T08:01:15;4.70;99.90
3866;DHT22;1948;53.250;10.412;2024-02-26T08:03:42;4.80;99.90
3866;DHT22;1948;53.250;10.412;2024-02-26T08:06:11;4.80;99.90
3866;DHT22;1948;53.250;10.412;2024-02-26T08:08:44;4.80;99.90
3866;DHT22;1948;53.250;10.412;2024-02-26T08:11:11;4.90;99.90
3866;DHT22;1948;53.250;10.412;2024-02-26T08:13:37;5.10;99.90
3866;DHT22;1948;53.250;10.412;2024-02-26T08:16:05;5.00;99.90
3866;DHT22;1948;53.250;10.412;2024-02-26T08:18:32;5.10;99.90
3866;DHT22;1948;53.250;10.412;2024-02-26T08:20:59;5.10;99.90
3866;DHT22;1948;53.250;10.412;2024-02-26T08:23:29;5.10;99.90
3866;DHT22;1948;53.250;10.412;2024-02-26T08:25:57;5.10;99.90
3866;DHT22;1948;53.250;10.412;2024-02-26T08:28:27;5.20;99.90
3866;DHT22;1948;53.250;10.412;2024-02-26T08:30:56;5.20;99.90
3866;DHT22;1948;53.250;10.412;2024-02-26T08:33:23;5.30;99.90
3866;DHT22;1948;53.250;10.412;2024-02-26T08:35:50;5.40;99.90
3866;DHT22;1948;53.250;10.412;2024-02-26T08:38:17;5.40;99.90
3866;DHT22;1948;53.250;10.412;2024-02-26T08:40:47;5.50;99.90
3866;DHT22;1948;53.250;10.412;2024-02-26T08:43:17;5.50;99.90
3866;DHT22;1948;53.250;10.412;2024-02-26T08:45:45;5.40;99.90
3866;DHT22;1948;53.250;10.412;2024-02-26T08:48:12;5.40;99.90
3866;DHT22;1948;53.250;10.412;2024-02-26T08:50:42;5.40;99.90
3866;DHT22;1948;53.250;10.412;2024-02-26T08:53:09;5.50;99.90
3866;DHT22;1948;53.250;10.412;2024-02-26T08:55:36;5.50;99.90
3866;DHT22;1948;53.250;10.412;2024-02-26T08:58:06;5.50;99.90
3866;DHT22;1948;53.250;10.412;2024-02-26T09:00:33;5.60;99.90
3866;DHT22;1948;53.250;10.412;2024-02-26T09:03:03;5.60;99.90
3866;DHT22;1948;53.250;10.412;2024-02-26T09:05:34;5.70;99.90
3866;DHT22;1948;53.250;10.412;2024-02-26T09:08:03;5.80;99.90
3866;DHT22;1948;53.250;10.412;2024-02-26T09:10:30;5.80;99.90
3866;DHT22;1948;53.250;10.412;2024-02-26T09:12:59;5.80;99.90
3866;DHT22;1948;53.250;10.412;2024-02-26T09:15:29;5.80;99.90
3866;DHT22;1948;53.250;10.412;2024-02-26T09:17:58;5.90;99.90
3866;DHT22;1948;53.250;10.412;2024-02-26T09:20:32;5.90;99.90
3866;DHT22;1948;53.250;10.412;2024-02-26T09:22:59;6.00;99.90
3866;DHT22;1948;53.250;10.412;2024-02-26T09:25:26;6.00;99.90
3866;DHT22;1948;53.250;10.412;2024-02-26T09:27:53;6.00;99.90
3866;DHT22;1948;53.250;10.412;2024-02-26T09:30:22;6.10;99.90
3866;DHT22;1948;53.250;10.412;2024-02-26T09:32:49;6.10;99.90
3866;DHT22;1948;53.250;10.412;2024-02-26T09:35:16;6.20;99.90
3866;DHT22;1948;53.250;10.412;2024-02-26T09:37:43;6.20;99.90
3866;DHT22;1948;53.250;10.412;2024-02-26T09:40:11;6.20;99.90
3866;DHT22;1948;53.250;10.412;2024-02-26T09:42:45;6.30;99.90
3866;DHT22;1948;53.250;10.412;2024-02-26T09:45:18;6.40;99.90
3866;DHT22;1948;53.250;10.412;2024-02-26T09:47:49;6.50;99.90
3866;DHT22;1948;53.250;10.412;2024-02-26T09:50:20;6.60;99.90
3866;DHT22;1948;53.250;10.412;2024-02-26T09:52:54;6.60;99.90
3866;DHT22;1948;53.250;10.412;2024-02-26T09:55:21;6.50;99.90
3866;DHT22;1948;53.250;10.412;2024-02-26T09:57:51;6.70;99.90
3866;DHT22;1948;53.250;10.412;2024-02-26T10:00:22;6.80;99.90
3866;DHT22;1948;53.250;10.412;2024-02-26T10:02:50;6.80;99.90
3866;DHT22;1948;53.250;10.412;2024-02-26T10:05:21;6.80;99.90
3866;DHT22;1948;53.250;10.412;2024-02-26T10:07:49;6.80;99.90
3866;DHT22;1948;53.250;10.412;2024-02-26T10:10:17;6.90;99.90
3866;DHT22;1948;53.250;10.412;2024-02-26T10:12:45;7.10;99.90
3866;DHT22;1948;53.250;10.412;2024-02-26T10:15:12;7.20;99.90
3866;DHT22;1948;53.250;10.412;2024-02-26T10:17:39;7.40;99.90
3866;DHT22;1948;53.250;10.412;2024-02-26T10:22:38;7.60;99.90
3866;DHT22;1948;53.250;10.412;2024-02-26T10:25:06;7.80;99.90
3866;DHT22;1948;53.250;10.412;2024-02-26T10:27:35;8.00;99.90
3866;DHT22;1948;53.250;10.412;2024-02-26T10:30:04;8.20;99.90
3866;DHT22;1948;53.250;10.412;2024-02-26T10:32:32;8.40;99.90
3866;DHT22;1948;53.250;10.412;2024-02-26T10:35:00;8.70;99.90
3866;DHT22;1948;53.250;10.412;2024-02-26T10:37:29;8.90;99.90
3866;DHT22;1948;53.250;10.412;2024-02-26T10:39:59;9.30;99.90
3866;DHT22;1948;53.250;10.412;2024-02-26T10:42:31;9.60;99.90
3866;DHT22;1948;53.250;10.412;2024-02-26T10:45:00;10.00;99.90
3866;DHT22;1948;53.250;10.412;2024-02-26T10:47:30;10.60;99.90
3866;DHT22;1948;53.250;10.412;2024-02-26T10:49:58;10.90;99.90
3866;DHT22;1948;53.250;10.412;2024-02-26T10:52:27;11.00;99.90
3866;DHT22;1948;53.250;10.412;2024-02-26T10:55:04;11.30;99.90
3866;DHT22;1948;53.250;10.412;2024-02-26T10:57:36;11.70;99.90
3866;DHT22;1948;53.250;10.412;2024-02-26T11:00:07;12.20;99.90
3866;DHT22;1948;53.250;10.412;2024-02-26T11:02:38;12.70;99.90
3866;DHT22;1948;53.250;10.412;2024-02-26T11:05:06;13.00;99.90
3866;DHT22;1948;53.250;10.412;2024-02-26T11:07:34;13.20;99.90
3866;DHT22;1948;53.250;10.412;2024-02-26T11:10:05;14.00;99.90
3866;DHT22;1948;53.250;10.412;2024-02-26T11:12:36;14.50;99.90
3866;DHT22;1948;53.250;10.412;2024-02-26T11:15:04;15.00;99.90
3866;DHT22;1948;53.250;10.412;2024-02-26T11:17:35;15.40;99.90
3866;DHT22;1948;53.250;10.412;2024-02-26T11:20:09;16.10;99.90
3866;DHT22;1948;53.250;10.412;2024-02-26T11:22:39;16.50;99.90
3866;DHT22;1948;53.250;10.412;2024-02-26T11:25:07;16.90;99.90
3866;DHT22;1948;53.250;10.412;2024-02-26T11:27:41;17.10;99.90
3866;DHT22;1948;53.250;10.412;2024-02-26T11:30:12;17.20;99.90
3866;DHT22;1948;53.250;10.412;2024-02-26T11:32:40;17.00;99.90
3866;DHT22;1948;53.250;10.412;2024-02-26T11:35:07;16.90;99.90
3866;DHT22;1948;53.250;10.412;2024-02-26T11:37:39;16.80;99.90
3866;DHT22;1948;53.250;10.412;2024-02-26T11:40:11;16.80;99.90
3866;DHT22;1948;53.250;10.412;2024-02-26T11:42:44;17.10;99.90
3866;DHT22;1948;53.250;10.412;2024-02-26T11:50:53;17.00;99.90
3866;DHT22;1948;53.250;10.412;2024-02-26T11:58:45;16.40;99.90
3866;DHT22;1948;53.250;10.412;2024-02-26T12:01:35;16.20;99.90
3866;DHT22;1948;53.250;10.412;2024-02-26T12:07:35;16.10;99.90
3866;DHT22;1948;53.250;10.412;2024-02-26T12:10:38;16.00;99.90
3866;DHT22;1948;53.250;10.412;2024-02-26T12:25:21;16.20;99.90
3866;DHT22;1948;53.250;10.412;2024-02-26T12:27:50;15.60;99.90
3866;DHT22;1948;53.250;10.412;2024-02-26T12:30:21;15.70;99.90
3866;DHT22;1948;53.250;10.412;2024-02-26T12:32:50;15.90;99.90
3866;DHT22;1948;53.250;10.412;2024-02-26T12:35:18;15.70;99.90
3866;DHT22;1948;53.250;10.412;2024-02-26T12:37:47;15.80;99.90
3866;DHT22;1948;53.250;10.412;2024-02-26T12:40:14;16.00;99.90
3866;DHT22;1948;53.250;10.412;2024-02-26T12:42:44;16.20;99.90
3866;DHT22;1948;53.250;10.412;2024-02-26T12:45:15;16.20;99.90
3866;DHT22;1948;53.250;10.412;2024-02-26T12:47:44;16.20;99.90
3866;DHT22;1948;53.250;10.412;2024-02-26T12:50:16;16.20;99.90
3866;DHT22;1948;53.250;10.412;2024-02-26T12:52:44;16.20;99.90
3866;DHT22;1948;53.250;10.412;2024-02-26T12:55:15;16.40;99.90
3866;DHT22;1948;53.250;10.412;2024-02-26T12:57:44;16.60;99.90
3866;DHT22;1948;53.250;10.412;2024-02-26T13:00:21;16.80;99.90
3866;DHT22;1948;53.250;10.412;2024-02-26T13:02:50;17.10;99.90
3866;DHT22;1948;53.250;10.412;2024-02-26T13:05:22;17.40;99.90
3866;DHT22;1948;53.250;10.412;2024-02-26T13:07:50;18.00;99.90
3866;DHT22;1948;53.250;10.412;2024-02-26T13:10:19;18.30;99.90
3866;DHT22;1948;53.250;10.412;2024-02-26T13:12:51;18.40;99.90
3866;DHT22;1948;53.250;10.412;2024-02-26T13:15:22;18.60;99.90
3866;DHT22;1948;53.250;10.412;2024-02-26T13:17:50;18.90;99.90
3866;DHT22;1948;53.250;10.412;2024-02-26T13:20:28;19.40;99.90
3866;DHT22;1948;53.250;10.412;2024-02-26T13:23:05;19.10;99.90
3866;DHT22;1948;53.250;10.412;2024-02-26T13:25:36;18.90;99.90
3866;DHT22;1948;53.250;10.412;2024-02-26T13:28:16;19.00;99.90
3866;DHT22;1948;53.250;10.412;2024-02-26T13:30:55;19.80;99.90
3866;DHT22;1948;53.250;10.412;2024-02-26T13:33:30;20.60;99.90
3866;DHT22;1948;53.250;10.412;2024-02-26T13:36:00;20.70;99.90
3866;DHT22;1948;53.250;10.412;2024-02-26T13:38:28;20.70;99.90
3866;DHT22;1948;53.250;10.412;2024-02-26T13:40:55;20.60;99.90
3866;DHT22;1948;53.250;10.412;2024-02-26T13:43:27;20.70;99.90
3866;DHT22;1948;53.250;10.412;2024-02-26T13:45:54;20.90;99.90
3866;DHT22;1948;53.250;10.412;2024-02-26T13:48:21;20.20;99.90
3866;DHT22;1948;53.250;10.412;2024-02-26T13:50:57;19.70;99.90
3866;DHT22;1948;53.250;10.412;2024-02-26T13:53:26;18.90;99.90
3866;DHT22;1948;53.250;10.412;2024-02-26T13:55:56;18.30;99.90
3866;DHT22;1948;53.250;10.412;2024-02-26T13:58:25;17.60;99.90
3866;DHT22;1948;53.250;10.412;2024-02-26T14:00:56;17.10;99.90
3866;DHT22;1948;53.250;10.412;2024-02-26T14:03:23;16.70;99.90
3866;DHT22;1948;53.250;10.412;2024-02-26T14:05:50;16.40;99.90
3866;DHT22;1948;53.250;10.412;2024-02-26T14:08:17;15.90;99.90
3866;DHT22;1948;53.250;10.412;2024-02-26T14:10:44;15.40;99.90
3866;DHT22;1948;53.250;10.412;2024-02-26T14:13:11;15.10;99.90
3866;DHT22;1948;53.250;10.412;2024-02-26T14:15:40;14.70;99.90
3866;DHT22;1948;53.250;10.412;2024-02-26T14:18:12;14.40;99.90
3866;DHT22;1948;53.250;10.412;2024-02-26T14:20:39;14.10;99.90
3866;DHT22;1948;53.250;10.412;2024-02-26T14:23:08;14.10;99.90
3866;DHT22;1948;53.250;10.412;2024-02-26T14:25:38;13.90;99.90
3866;DHT22;1948;53.250;10.412;2024-02-26T14:28:05;13.80;99.90
3866;DHT22;1948;53.250;10.412;2024-02-26T14:30:45;13.60;99.90
3866;DHT22;1948;53.250;10.412;2024-02-26T14:33:12;13.50;99.90
3866;DHT22;1948;53.250;10.412;2024-02-26T14:35:39;13.30;99.90
3866;DHT22;1948;53.250;10.412;2024-02-26T14:38:08;13.20;99.90
3866;DHT22;1948;53.250;10.412;2024-02-26T14:40:37;13.10;99.90
3866;DHT22;1948;53.250;10.412;2024-02-26T14:43:04;13.00;99.90
3866;DHT22;1948;53.250;10.412;2024-02-26T14:45:32;12.90;99.90
3866;DHT22;1948;53.250;10.412;2024-02-26T14:47:59;12.80;99.90
3866;DHT22;1948;53.250;10.412;2024-02-26T14:50:29;12.70;99.90
3866;DHT22;1948;53.250;10.412;2024-02-26T14:52:59;12.30;99.90
3866;DHT22;1948;53.250;10.412;2024-02-26T14:55:29;12.20;99.90
3866;DHT22;1948;53.250;10.412;2024-02-26T14:58:01;11.90;99.90
3866;DHT22;1948;53.250;10.412;2024-02-26T15:00:32;12.00;99.90
3866;DHT22;1948;53.250;10.412;2024-02-26T15:03:03;11.80;99.90
3866;DHT22;1948;53.250;10.412;2024-02-26T15:05:30;11.70;99.90
3866;DHT22;1948;53.250;10.412;2024-02-26T15:08:00;11.40;99.90
3866;DHT22;1948;53.250;10.412;2024-02-26T15:10:28;11.30;99.90
3866;DHT22;1948;53.250;10.412;2024-02-26T15:13:00;11.10;99.90
3866;DHT22;1948;53.250;10.412;2024-02-26T15:15:31;11.10;99.90
3866;DHT22;1948;53.250;10.412;2024-02-26T15:18:00;11.00;99.90
3866;DHT22;1948;53.250;10.412;2024-02-26T15:20:28;11.00;99.90
3866;DHT22;1948;53.250;10.412;2024-02-26T15:22:56;10.80;99.90
3866;DHT22;1948;53.250;10.412;2024-02-26T15:25:26;10.80;99.90
3866;DHT22;1948;53.250;10.412;2024-02-26T15:27:53;10.80;99.90
3866;DHT22;1948;53.250;10.412;2024-02-26T15:30:20;10.70;99.90
3866;DHT22;1948;53.250;10.412;2024-02-26T15:32:47;10.50;99.90
3866;DHT22;1948;53.250;10.412;2024-02-26T15:35:14;10.50;99.90
3866;DHT22;1948;53.250;10.412;2024-02-26T15:37:41;10.50;99.90
3866;DHT22;1948;53.250;10.412;2024-02-26T15:40:09;10.50;99.90
3866;DHT22;1948;53.250;10.412;2024-02-26T15:42:37;10.30;99.90
3866;DHT22;1948;53.250;10.412;2024-02-26T15:45:11;10.20;99.90
3866;DHT22;1948;53.250;10.412;2024-02-26T15:47:41;10.10;99.90
3866;DHT22;1948;53.250;10.412;2024-02-26T15:50:09;10.10;99.90
3866;DHT22;1948;53.250;10.412;2024-02-26T15:52:40;10.10;99.90
3866;DHT22;1948;53.250;10.412;2024-02-26T15:55:07;10.00;99.90
3866;DHT22;1948;53.250;10.412;2024-02-26T15:57:43;9.90;99.90
3866;DHT22;1948;53.250;10.412;2024-02-26T16:00:11;9.90;99.90
3866;DHT22;1948;53.250;10.412;2024-02-26T16:02:38;9.70;99.90
3866;DHT22;1948;53.250;10.412;2024-02-26T16:05:07;9.70;99.90
3866;DHT22;1948;53.250;10.412;2024-02-26T16:07:53;9.60;99.90
3866;DHT22;1948;53.250;10.412;2024-02-26T16:10:22;9.60;99.90
3866;DHT22;1948;53.250;10.412;2024-02-26T16:12:57;9.60;99.90
3866;DHT22;1948;53.250;10.412;2024-02-26T16:15:28;9.50;99.90
3866;DHT22;1948;53.250;10.412;2024-02-26T16:17:56;9.50;99.90
3866;DHT22;1948;53.250;10.412;2024-02-26T16:20:25;9.50;99.90
3866;DHT22;1948;53.250;10.412;2024-02-26T16:22:55;9.40;99.90
3866;DHT22;1948;53.250;10.412;2024-02-26T16:25:25;9.30;99.90
3866;DHT22;1948;53.250;10.412;2024-02-26T16:27:53;9.20;99.90
3866;DHT22;1948;53.250;10.412;2024-02-26T16:30:20;9.10;99.90
3866;DHT22;1948;53.250;10.412;2024-02-26T16:32:48;9.10;99.90
3866;DHT22;1948;53.250;10.412;2024-02-26T16:35:17;9.00;99.90
3866;DHT22;1948;53.250;10.412;2024-02-26T16:37:44;8.90;99.90